sensor_id;sensor_type;location;lat;lon;timestamp;P1;durP1;ratioP1;P2;durP2;ratioP2
209;SDS011;90;48.810;9.120;2024-03-23T00:54:07;4.53;;;4.27;;
209;SDS011;90;48.810;9.120;2024-03-23T00:56:32;5.40;;;4.67;;
209;SDS011;90;48.810;9.120;2024-03-23T00:58:59;5.80;;;4.67;;
209;SDS011;90;48.810;9.120;2024-03-23T01:01:25;4.40;;;4.10;;
209;SDS011;90;48.810;9.120;2024-03-23T01:03:51;5.80;;;4.47;;
209;SDS011;90;48.810;9.120;2024-03-23T01:06:17;5.60;;;4.60;;
209;SDS011;90;48.810;9.120;2024-03-23T01:08:44;4.83;;;4.57;;
209;SDS011;90;48.810;9.120;2024-03-23T01:11:11;7.53;;;4.80;;
209;SDS011;90;48.810;9.120;2024-03-23T01:13:37;5.83;;;4.23;;
209;SDS011;90;48.810;9.120;2024-03-23T01:16:03;5.30;;;5.00;;
209;SDS011;90;48.810;9.120;2024-03-23T01:18:30;5.50;;;4.60;;
209;SDS011;90;48.810;9.120;2024-03-23T01:20:58;4.83;;;4.53;;
209;SDS011;90;48.810;9.120;2024-03-23T01:23:24;4.80;;;4.37;;
209;SDS011;90;48.810;9.120;2024-03-23T01:25:53;5.23;;;4.70;;
209;SDS011;90;48.810;9.120;2024-03-23T01:28:21;7.47;;;4.30;;
209;SDS011;90;48.810;9.120;2024-03-23T01:30:48;4.63;;;4.33;;
209;SDS011;90;48.810;9.120;2024-03-23T01:33:15;7.10;;;4.57;;
209;SDS011;90;48.810;9.120;2024-03-23T01:35:41;5.40;;;4.37;;
209;SDS011;90;48.810;9.120;2024-03-23T01:38:07;4.90;;;4.50;;
209;SDS011;90;48.810;9.120;2024-03-23T01:40:33;4.87;;;4.57;;
209;SDS011;90;48.810;9.120;2024-03-23T01:43:02;5.93;;;4.63;;
209;SDS011;90;48.810;9.120;2024-03-23T01:45:31;8.90;;;4.53;;
209;SDS011;90;48.810;9.120;2024-03-23T01:47:57;4.60;;;4.30;;
209;SDS011;90;48.810;9.120;2024-03-23T01:50:24;4.73;;;4.43;;
209;SDS011;90;48.810;9.120;2024-03-23T01:52:51;4.67;;;4.30;;
209;SDS011;90;48.810;9.120;2024-03-23T01:55:17;4.07;;;3.87;;
209;SDS011;90;48.810;9.120;2024-03-23T01:57:43;4.77;;;4.20;;
209;SDS011;90;48.810;9.120;2024-03-23T02:00:09;5.20;;;4.60;;
209;SDS011;90;48.810;9.120;2024-03-23T02:02:41;6.17;;;4.67;;
209;SDS011;90;48.810;9.120;2024-03-23T02:05:08;8.60;;;4.83;;
209;SDS011;90;48.810;9.120;2024-03-23T02:07:35;6.80;;;4.37;;
209;SDS011;90;48.810;9.120;2024-03-23T02:10:01;10.73;;;5.70;;
209;SDS011;90;48.810;9.120;2024-03-23T02:12:28;7.13;;;4.30;;
209;SDS011;90;48.810;9.120;2024-03-23T02:14:54;5.33;;;4.40;;
209;SDS011;90;48.810;9.120;2024-03-23T02:17:20;5.37;;;4.43;;
209;SDS011;90;48.810;9.120;2024-03-23T02:19:48;4.60;;;4.30;;
209;SDS011;90;48.810;9.120;2024-03-23T02:22:14;4.60;;;4.30;;
209;SDS011;90;48.810;9.120;2024-03-23T02:24:42;6.00;;;5.13;;
209;SDS011;90;48.810;9.120;2024-03-23T02:27:09;5.37;;;4.30;;
209;SDS011;90;48.810;9.120;2024-03-23T02:29:35;4.57;;;4.18;;
209;SDS011;90;48.810;9.120;2024-03-23T02:32:02;5.07;;;3.83;;
209;SDS011;90;48.810;9.120;2024-03-23T02:34:28;6.10;;;4.60;;
209;SDS011;90;48.810;9.120;2024-03-23T02:36:54;10.60;;;4.60;;
209;SDS011;90;48.810;9.120;2024-03-23T02:39:20;6.73;;;4.67;;
209;SDS011;90;48.810;9.120;2024-03-23T02:41:48;7.13;;;4.70;;
209;SDS011;90;48.810;9.120;2024-03-23T02:44:14;9.33;;;4.60;;
209;SDS011;90;48.810;9.120;2024-03-23T02:46:40;4.73;;;4.43;;
209;SDS011;90;48.810;9.120;2024-03-23T02:49:06;4.80;;;4.50;;
209;SDS011;90;48.810;9.120;2024-03-23T02:51:33;5.83;;;4.77;;
209;SDS011;90;48.810;9.120;2024-03-23T02:53:59;4.93;;;4.63;;
209;SDS011;90;48.810;9.120;2024-03-23T02:56:25;4.80;;;4.50;;
209;SDS011;90;48.810;9.120;2024-03-23T02:58:53;6.03;;;4.43;;
209;SDS011;90;48.810;9.120;2024-03-23T03:01:19;6.47;;;4.90;;
209;SDS011;90;48.810;9.120;2024-03-23T03:03:45;4.60;;;4.23;;
209;SDS011;90;48.810;9.120;2024-03-23T03:06:12;7.67;;;4.30;;
209;SDS011;90;48.810;9.120;2024-03-23T03:08:48;5.03;;;4.40;;
209;SDS011;90;48.810;9.120;2024-03-23T03:11:15;5.10;;;4.23;;
209;SDS011;90;48.810;9.120;2024-03-23T03:13:40;9.43;;;4.60;;
209;SDS011;90;48.810;9.120;2024-03-23T03:16:09;6.00;;;4.70;;
209;SDS011;90;48.810;9.120;2024-03-23T03:18:35;5.23;;;4.50;;
209;SDS011;90;48.810;9.120;2024-03-23T03:21:02;4.50;;;4.20;;
209;SDS011;90;48.810;9.120;2024-03-23T03:23:28;5.90;;;4.97;;
209;SDS011;90;48.810;9.120;2024-03-23T03:25:55;4.70;;;4.40;;
209;SDS011;90;48.810;9.120;2024-03-23T03:28:20;4.80;;;4.50;;
209;SDS011;90;48.810;9.120;2024-03-23T03:30:47;4.97;;;4.67;;
209;SDS011;90;48.810;9.120;2024-03-23T03:33:14;4.73;;;4.43;;
209;SDS011;90;48.810;9.120;2024-03-23T03:35:41;6.23;;;4.70;;
209;SDS011;90;48.810;9.120;2024-03-23T03:38:08;7.00;;;4.70;;
209;SDS011;90;48.810;9.120;2024-03-23T03:40:35;6.90;;;4.70;;
209;SDS011;90;48.810;9.120;2024-03-23T03:43:00;7.10;;;4.43;;
209;SDS011;90;48.810;9.120;2024-03-23T03:45:27;4.70;;;4.40;;
209;SDS011;90;48.810;9.120;2024-03-23T03:47:53;5.00;;;4.03;;
209;SDS011;90;48.810;9.120;2024-03-23T03:50:21;9.40;;;4.30;;
209;SDS011;90;48.810;9.120;2024-03-23T03:52:47;5.40;;;4.40;;
209;SDS011;90;48.810;9.120;2024-03-23T03:55:14;5.23;;;4.57;;
209;SDS011;90;48.810;9.120;2024-03-23T03:57:39;7.90;;;4.20;;
209;SDS011;90;48.810;9.120;2024-03-23T04:00:07;5.20;;;4.43;;
209;SDS011;90;48.810;9.120;2024-03-23T04:02:36;4.90;;;4.60;;
209;SDS011;90;48.810;9.120;2024-03-23T04:05:02;4.93;;;4.67;;
209;SDS011;90;48.810;9.120;2024-03-23T04:07:30;7.40;;;4.80;;
209;SDS011;90;48.810;9.120;2024-03-23T04:09:56;6.27;;;4.47;;
209;SDS011;90;48.810;9.120;2024-03-23T04:12:22;5.00;;;4.20;;
209;SDS011;90;48.810;9.120;2024-03-23T04:14:49;6.43;;;5.10;;
209;SDS011;90;48.810;9.120;2024-03-23T04:17:15;5.07;;;4.70;;
209;SDS011;90;48.810;9.120;2024-03-23T04:19:42;9.17;;;4.47;;
209;SDS011;90;48.810;9.120;2024-03-23T04:22:09;4.53;;;4.30;;
209;SDS011;90;48.810;9.120;2024-03-23T04:24:37;6.53;;;4.30;;
209;SDS011;90;48.810;9.120;2024-03-23T04:27:03;7.40;;;5.23;;
209;SDS011;90;48.810;9.120;2024-03-23T04:29:29;10.70;;;4.70;;
209;SDS011;90;48.810;9.120;2024-03-23T04:31:58;8.73;;;5.20;;
209;SDS011;90;48.810;9.120;2024-03-23T04:34:26;12.97;;;6.13;;
209;SDS011;90;48.810;9.120;2024-03-23T04:36:51;10.03;;;6.80;;
209;SDS011;90;48.810;9.120;2024-03-23T04:39:18;6.47;;;5.80;;
209;SDS011;90;48.810;9.120;2024-03-23T04:41:47;7.65;;;5.85;;
209;SDS011;90;48.810;9.120;2024-03-23T04:44:13;7.07;;;6.47;;
209;SDS011;90;48.810;9.120;2024-03-23T04:46:40;9.90;;;6.27;;
209;SDS011;90;48.810;9.120;2024-03-23T04:49:07;16.10;;;7.30;;
209;SDS011;90;48.810;9.120;2024-03-23T04:51:35;8.93;;;7.47;;
209;SDS011;90;48.810;9.120;2024-03-23T04:54:02;11.20;;;7.80;;
209;SDS011;90;48.810;9.120;2024-03-23T04:56:29;15.43;;;8.93;;
209;SDS011;90;48.810;9.120;2024-03-23T04:58:57;13.73;;;9.57;;
209;SDS011;90;48.810;9.120;2024-03-23T05:01:26;19.97;;;12.57;;
209;SDS011;90;48.810;9.120;2024-03-23T05:03:53;24.73;;;13.60;;
209;SDS011;90;48.810;9.120;2024-03-23T05:06:19;24.10;;;14.10;;
209;SDS011;90;48.810;9.120;2024-03-23T05:08:45;30.23;;;16.40;;
209;SDS011;90;48.810;9.120;2024-03-23T05:11:11;29.87;;;15.87;;
209;SDS011;90;48.810;9.120;2024-03-23T05:13:38;25.93;;;14.97;;
209;SDS011;90;48.810;9.120;2024-03-23T05:16:05;24.47;;;14.50;;
209;SDS011;90;48.810;9.120;2024-03-23T05:18:32;24.70;;;14.13;;
209;SDS011;90;48.810;9.120;2024-03-23T05:20:58;28.43;;;15.90;;
209;SDS011;90;48.810;9.120;2024-03-23T05:23:24;31.93;;;16.80;;
209;SDS011;90;48.810;9.120;2024-03-23T05:25:50;32.13;;;15.83;;
209;SDS011;90;48.810;9.120;2024-03-23T05:28:18;25.90;;;14.70;;
209;SDS011;90;48.810;9.120;2024-03-23T05:30:44;29.07;;;15.93;;
209;SDS011;90;48.810;9.120;2024-03-23T05:33:18;30.10;;;16.83;;
209;SDS011;90;48.810;9.120;2024-03-23T05:35:43;29.92;;;16.25;;
209;SDS011;90;48.810;9.120;2024-03-23T05:38:10;26.07;;;14.90;;
209;SDS011;90;48.810;9.120;2024-03-23T05:40:36;33.10;;;16.40;;
209;SDS011;90;48.810;9.120;2024-03-23T05:43:05;28.30;;;15.80;;
209;SDS011;90;48.810;9.120;2024-03-23T05:45:31;25.50;;;13.30;;
209;SDS011;90;48.810;9.120;2024-03-23T05:47:57;20.40;;;11.90;;
209;SDS011;90;48.810;9.120;2024-03-23T05:50:24;24.30;;;12.80;;
209;SDS011;90;48.810;9.120;2024-03-23T05:52:51;19.53;;;11.27;;
209;SDS011;90;48.810;9.120;2024-03-23T05:55:17;13.97;;;7.63;;
209;SDS011;90;48.810;9.120;2024-03-23T05:57:43;9.63;;;7.47;;
209;SDS011;90;48.810;9.120;2024-03-23T06:00:10;11.60;;;6.93;;
209;SDS011;90;48.810;9.120;2024-03-23T06:02:41;7.00;;;5.50;;
209;SDS011;90;48.810;9.120;2024-03-23T06:05:09;6.00;;;5.20;;
209;SDS011;90;48.810;9.120;2024-03-23T06:07:37;5.57;;;5.33;;
209;SDS011;90;48.810;9.120;2024-03-23T06:10:03;6.10;;;5.00;;
209;SDS011;90;48.810;9.120;2024-03-23T06:12:31;7.07;;;5.30;;
209;SDS011;90;48.810;9.120;2024-03-23T06:14:56;6.30;;;4.87;;
209;SDS011;90;48.810;9.120;2024-03-23T06:17:23;6.17;;;5.40;;
209;SDS011;90;48.810;9.120;2024-03-23T06:19:49;10.13;;;5.27;;
209;SDS011;90;48.810;9.120;2024-03-23T06:22:15;6.13;;;4.83;;
209;SDS011;90;48.810;9.120;2024-03-23T06:24:42;5.40;;;4.23;;
209;SDS011;90;48.810;9.120;2024-03-23T06:27:10;4.70;;;3.90;;
209;SDS011;90;48.810;9.120;2024-03-23T06:29:36;6.43;;;4.27;;
209;SDS011;90;48.810;9.120;2024-03-23T06:32:03;5.60;;;3.70;;
209;SDS011;90;48.810;9.120;2024-03-23T06:34:29;4.50;;;3.77;;
209;SDS011;90;48.810;9.120;2024-03-23T06:36:56;3.77;;;3.13;;
209;SDS011;90;48.810;9.120;2024-03-23T06:39:21;3.83;;;3.00;;
209;SDS011;90;48.810;9.120;2024-03-23T06:41:53;5.50;;;2.53;;
209;SDS011;90;48.810;9.120;2024-03-23T06:44:19;5.63;;;2.37;;
209;SDS011;90;48.810;9.120;2024-03-23T06:46:47;2.10;;;1.93;;
209;SDS011;90;48.810;9.120;2024-03-23T06:49:13;2.20;;;2.00;;
209;SDS011;90;48.810;9.120;2024-03-23T06:51:40;2.40;;;2.20;;
209;SDS011;90;48.810;9.120;2024-03-23T06:54:06;2.60;;;2.40;;
209;SDS011;90;48.810;9.120;2024-03-23T06:56:33;2.67;;;2.47;;
209;SDS011;90;48.810;9.120;2024-03-23T06:59:00;2.30;;;2.00;;
209;SDS011;90;48.810;9.120;2024-03-23T07:01:27;1.70;;;1.40;;
209;SDS011;90;48.810;9.120;2024-03-23T07:03:53;2.33;;;2.00;;
209;SDS011;90;48.810;9.120;2024-03-23T07:06:20;1.80;;;1.60;;
209;SDS011;90;48.810;9.120;2024-03-23T07:08:49;5.93;;;1.67;;
209;SDS011;90;48.810;9.120;2024-03-23T07:11:18;1.90;;;1.70;;
209;SDS011;90;48.810;9.120;2024-03-23T07:13:44;2.10;;;1.60;;
209;SDS011;90;48.810;9.120;2024-03-23T07:16:13;1.90;;;1.77;;
209;SDS011;90;48.810;9.120;2024-03-23T07:18:38;1.83;;;1.60;;
209;SDS011;90;48.810;9.120;2024-03-23T07:21:05;1.90;;;1.80;;
209;SDS011;90;48.810;9.120;2024-03-23T07:23:32;1.80;;;1.40;;
209;SDS011;90;48.810;9.120;2024-03-23T07:25:59;1.90;;;1.60;;
209;SDS011;90;48.810;9.120;2024-03-23T07:28:25;1.83;;;1.60;;
209;SDS011;90;48.810;9.120;2024-03-23T07:31:03;1.80;;;1.60;;
209;SDS011;90;48.810;9.120;2024-03-23T07:33:31;1.80;;;1.63;;
209;SDS011;90;48.810;9.120;2024-03-23T07:35:58;1.80;;;1.73;;
209;SDS011;90;48.810;9.120;2024-03-23T07:38:25;2.93;;;2.13;;
209;SDS011;90;48.810;9.120;2024-03-23T07:40:52;1.90;;;1.70;;
209;SDS011;90;48.810;9.120;2024-03-23T07:43:27;1.83;;;1.77;;
209;SDS011;90;48.810;9.120;2024-03-23T07:45:54;1.80;;;1.60;;
209;SDS011;90;48.810;9.120;2024-03-23T07:48:20;2.73;;;1.70;;
209;SDS011;90;48.810;9.120;2024-03-23T07:50:57;1.80;;;1.50;;
209;SDS011;90;48.810;9.120;2024-03-23T07:53:23;1.90;;;1.83;;
209;SDS011;90;48.810;9.120;2024-03-23T07:55:52;1.70;;;1.40;;
209;SDS011;90;48.810;9.120;2024-03-23T07:58:19;2.83;;;1.73;;
209;SDS011;90;48.810;9.120;2024-03-23T08:00:46;1.90;;;1.80;;
209;SDS011;90;48.810;9.120;2024-03-23T08:03:12;2.80;;;1.70;;
209;SDS011;90;48.810;9.120;2024-03-23T08:05:38;2.57;;;1.90;;
209;SDS011;90;48.810;9.120;2024-03-23T08:08:06;2.47;;;2.17;;
209;SDS011;90;48.810;9.120;2024-03-23T08:10:32;2.37;;;1.97;;
209;SDS011;90;48.810;9.120;2024-03-23T08:12:58;2.20;;;2.00;;
209;SDS011;90;48.810;9.120;2024-03-23T08:15:25;1.90;;;1.87;;
209;SDS011;90;48.810;9.120;2024-03-23T08:17:51;3.30;;;2.10;;
209;SDS011;90;48.810;9.120;2024-03-23T08:20:17;2.00;;;1.90;;
209;SDS011;90;48.810;9.120;2024-03-23T08:22:43;1.90;;;1.90;;
209;SDS011;90;48.810;9.120;2024-03-23T08:25:11;1.80;;;1.80;;
209;SDS011;90;48.810;9.120;2024-03-23T08:27:37;1.90;;;1.80;;
209;SDS011;90;48.810;9.120;2024-03-23T08:30:04;1.80;;;1.70;;
209;SDS011;90;48.810;9.120;2024-03-23T08:32:30;2.03;;;1.93;;
209;SDS011;90;48.810;9.120;2024-03-23T08:34:57;2.40;;;2.20;;
209;SDS011;90;48.810;9.120;2024-03-23T08:37:23;2.57;;;2.37;;
209;SDS011;90;48.810;9.120;2024-03-23T08:39:50;2.63;;;2.40;;
209;SDS011;90;48.810;9.120;2024-03-23T08:42:17;2.70;;;2.50;;
209;SDS011;90;48.810;9.120;2024-03-23T08:44:44;3.23;;;3.03;;
209;SDS011;90;48.810;9.120;2024-03-23T08:47:14;2.72;;;2.53;;
209;SDS011;90;48.810;9.120;2024-03-23T08:49:41;2.80;;;2.60;;
209;SDS011;90;48.810;9.120;2024-03-23T08:52:07;2.80;;;2.60;;
209;SDS011;90;48.810;9.120;2024-03-23T08:54:33;2.53;;;2.33;;
209;SDS011;90;48.810;9.120;2024-03-23T08:56:59;2.70;;;2.33;;
209;SDS011;90;48.810;9.120;2024-03-23T08:59:28;5.00;;;3.30;;
209;SDS011;90;48.810;9.120;2024-03-23T09:01:53;6.73;;;3.50;;
209;SDS011;90;48.810;9.120;2024-03-23T09:04:20;3.97;;;3.47;;
209;SDS011;90;48.810;9.120;2024-03-23T09:06:46;3.80;;;3.50;;
209;SDS011;90;48.810;9.120;2024-03-23T09:09:13;4.20;;;3.40;;
209;SDS011;90;48.810;9.120;2024-03-23T09:11:39;6.20;;;3.67;;
209;SDS011;90;48.810;9.120;2024-03-23T09:14:05;5.97;;;4.10;;
209;SDS011;90;48.810;9.120;2024-03-23T09:16:33;5.93;;;4.00;;
209;SDS011;90;48.810;9.120;2024-03-23T09:19:02;4.70;;;3.43;;
209;SDS011;90;48.810;9.120;2024-03-23T09:21:28;3.90;;;2.90;;
209;SDS011;90;48.810;9.120;2024-03-23T09:23:55;4.07;;;3.87;;
209;SDS011;90;48.810;9.120;2024-03-23T09:26:23;5.60;;;3.70;;
209;SDS011;90;48.810;9.120;2024-03-23T09:28:50;5.27;;;3.90;;
209;SDS011;90;48.810;9.120;2024-03-23T09:31:16;4.10;;;3.90;;
209;SDS011;90;48.810;9.120;2024-03-23T09:33:44;6.83;;;4.90;;
209;SDS011;90;48.810;9.120;2024-03-23T09:36:10;11.65;;;4.90;;
209;SDS011;90;48.810;9.120;2024-03-23T09:38:37;10.97;;;5.73;;
209;SDS011;90;48.810;9.120;2024-03-23T09:41:06;9.03;;;4.90;;
209;SDS011;90;48.810;9.120;2024-03-23T09:43:34;8.25;;;4.45;;
209;SDS011;90;48.810;9.120;2024-03-23T09:46:01;6.37;;;3.83;;
209;SDS011;90;48.810;9.120;2024-03-23T09:48:28;8.93;;;4.50;;
209;SDS011;90;48.810;9.120;2024-03-23T09:50:56;6.57;;;4.63;;
209;SDS011;90;48.810;9.120;2024-03-23T09:53:22;6.87;;;4.30;;
209;SDS011;90;48.810;9.120;2024-03-23T09:55:48;7.30;;;4.70;;
209;SDS011;90;48.810;9.120;2024-03-23T09:58:16;10.17;;;5.93;;
209;SDS011;90;48.810;9.120;2024-03-23T10:00:42;5.63;;;4.83;;
209;SDS011;90;48.810;9.120;2024-03-23T10:03:09;13.50;;;5.53;;
209;SDS011;90;48.810;9.120;2024-03-23T10:05:36;14.37;;;6.33;;
209;SDS011;90;48.810;9.120;2024-03-23T10:08:17;6.43;;;4.90;;
209;SDS011;90;48.810;9.120;2024-03-23T10:10:46;13.23;;;5.87;;
209;SDS011;90;48.810;9.120;2024-03-23T10:13:23;10.23;;;5.80;;
209;SDS011;90;48.810;9.120;2024-03-23T10:16:05;10.30;;;6.17;;
209;SDS011;90;48.810;9.120;2024-03-23T10:18:58;9.20;;;5.50;;
209;SDS011;90;48.810;9.120;2024-03-23T10:21:30;9.37;;;5.60;;
209;SDS011;90;48.810;9.120;2024-03-23T10:27:18;11.17;;;5.67;;
209;SDS011;90;48.810;9.120;2024-03-23T10:30:15;10.57;;;5.53;;
209;SDS011;90;48.810;9.120;2024-03-23T10:36:01;8.17;;;5.20;;
209;SDS011;90;48.810;9.120;2024-03-23T10:39:05;6.50;;;4.70;;
209;SDS011;90;48.810;9.120;2024-03-23T10:51:42;8.20;;;5.13;;
209;SDS011;90;48.810;9.120;2024-03-23T10:54:56;10.60;;;5.80;;
209;SDS011;90;48.810;9.120;2024-03-23T11:21:20;4.50;;;4.15;;
209;SDS011;90;48.810;9.120;2024-03-23T11:24:30;6.93;;;4.57;;
209;SDS011;90;48.810;9.120;2024-03-23T11:30:17;7.50;;;4.70;;
209;SDS011;90;48.810;9.120;2024-03-23T11:39:56;7.03;;;4.83;;
209;SDS011;90;48.810;9.120;2024-03-23T11:42:58;4.10;;;3.73;;
209;SDS011;90;48.810;9.120;2024-03-23T11:45:26;5.43;;;3.97;;
209;SDS011;90;48.810;9.120;2024-03-23T11:52:23;4.73;;;3.07;;
209;SDS011;90;48.810;9.120;2024-03-23T11:58:56;5.00;;;3.10;;
209;SDS011;90;48.810;9.120;2024-03-23T12:02:08;5.63;;;4.00;;
209;SDS011;90;48.810;9.120;2024-03-23T12:05:59;11.47;;;3.70;;
209;SDS011;90;48.810;9.120;2024-03-23T12:08:28;4.13;;;3.23;;
209;SDS011;90;48.810;9.120;2024-03-23T12:11:13;4.83;;;3.20;;
209;SDS011;90;48.810;9.120;2024-03-23T12:14:20;8.53;;;2.70;;
209;SDS011;90;48.810;9.120;2024-03-23T12:17:15;5.13;;;2.93;;
209;SDS011;90;48.810;9.120;2024-03-23T12:19:53;4.37;;;3.03;;
209;SDS011;90;48.810;9.120;2024-03-23T12:36:52;4.93;;;3.60;;
209;SDS011;90;48.810;9.120;2024-03-23T12:42:23;8.90;;;3.70;;
209;SDS011;90;48.810;9.120;2024-03-23T12:54:29;67.43;;;23.17;;
209;SDS011;90;48.810;9.120;2024-03-23T12:56:56;49.00;;;17.40;;
209;SDS011;90;48.810;9.120;2024-03-23T12:59:59;49.47;;;17.40;;
209;SDS011;90;48.810;9.120;2024-03-23T13:05:54;9.47;;;4.23;;
209;SDS011;90;48.810;9.120;2024-03-23T13:12:12;9.47;;;3.87;;
209;SDS011;90;48.810;9.120;2024-03-23T13:25:05;4.77;;;3.30;;
209;SDS011;90;48.810;9.120;2024-03-23T13:27:47;8.37;;;3.83;;
209;SDS011;90;48.810;9.120;2024-03-23T13:30:22;6.27;;;2.90;;
209;SDS011;90;48.810;9.120;2024-03-23T13:35:50;6.63;;;3.40;;
209;SDS011;90;48.810;9.120;2024-03-23T13:41:57;6.07;;;2.67;;
209;SDS011;90;48.810;9.120;2024-03-23T13:54:19;7.20;;;3.00;;
209;SDS011;90;48.810;9.120;2024-03-23T13:56:55;9.40;;;3.67;;
209;SDS011;90;48.810;9.120;2024-03-23T14:00:05;4.07;;;2.80;;
209;SDS011;90;48.810;9.120;2024-03-23T14:02:45;6.47;;;2.80;;
209;SDS011;90;48.810;9.120;2024-03-23T14:05:36;4.70;;;2.60;;
209;SDS011;90;48.810;9.120;2024-03-23T14:08:27;6.33;;;3.30;;
209;SDS011;90;48.810;9.120;2024-03-23T14:11:01;4.80;;;3.23;;
209;SDS011;90;48.810;9.120;2024-03-23T14:13:49;7.17;;;3.50;;
209;SDS011;90;48.810;9.120;2024-03-23T14:16:25;3.95;;;3.17;;
209;SDS011;90;48.810;9.120;2024-03-23T14:19:07;5.57;;;3.08;;
209;SDS011;90;48.810;9.120;2024-03-23T14:21:59;4.43;;;2.65;;
209;SDS011;90;48.810;9.120;2024-03-23T14:24:25;5.00;;;2.30;;
209;SDS011;90;48.810;9.120;2024-03-23T14:33:27;5.20;;;2.30;;
209;SDS011;90;48.810;9.120;2024-03-23T14:36:24;3.83;;;2.57;;
209;SDS011;90;48.810;9.120;2024-03-23T14:39:06;4.13;;;2.70;;
209;SDS011;90;48.810;9.120;2024-03-23T14:42:01;3.97;;;2.90;;
209;SDS011;90;48.810;9.120;2024-03-23T14:44:39;5.33;;;2.67;;
209;SDS011;90;48.810;9.120;2024-03-23T15:14:42;4.03;;;2.20;;
209;SDS011;90;48.810;9.120;2024-03-23T15:17:10;3.50;;;2.10;;
209;SDS011;90;48.810;9.120;2024-03-23T15:19:36;2.07;;;1.93;;
209;SDS011;90;48.810;9.120;2024-03-23T15:22:03;3.00;;;1.90;;
209;SDS011;90;48.810;9.120;2024-03-23T15:24:28;4.40;;;2.40;;
209;SDS011;90;48.810;9.120;2024-03-23T15:26:56;2.50;;;2.13;;
209;SDS011;90;48.810;9.120;2024-03-23T15:29:22;2.13;;;1.97;;
209;SDS011;90;48.810;9.120;2024-03-23T15:31:49;2.83;;;1.87;;
209;SDS011;90;48.810;9.120;2024-03-23T15:34:19;1.90;;;1.87;;
209;SDS011;90;48.810;9.120;2024-03-23T15:36:46;2.67;;;2.17;;
209;SDS011;90;48.810;9.120;2024-03-23T15:39:13;3.30;;;2.10;;
209;SDS011;90;48.810;9.120;2024-03-23T15:41:39;3.13;;;2.33;;
209;SDS011;90;48.810;9.120;2024-03-23T15:44:05;2.70;;;2.07;;
209;SDS011;90;48.810;9.120;2024-03-23T15:46:32;2.70;;;1.87;;
209;SDS011;90;48.810;9.120;2024-03-23T15:48:58;2.30;;;2.10;;
209;SDS011;90;48.810;9.120;2024-03-23T15:51:26;3.53;;;2.00;;
209;SDS011;90;48.810;9.120;2024-03-23T15:53:57;4.10;;;2.00;;
209;SDS011;90;48.810;9.120;2024-03-23T15:56:23;2.10;;;2.00;;
209;SDS011;90;48.810;9.120;2024-03-23T15:58:50;2.53;;;2.17;;
209;SDS011;90;48.810;9.120;2024-03-23T16:01:15;3.20;;;1.90;;
209;SDS011;90;48.810;9.120;2024-03-23T16:03:43;3.03;;;2.10;;
209;SDS011;90;48.810;9.120;2024-03-23T16:06:09;2.57;;;2.23;;
209;SDS011;90;48.810;9.120;2024-03-23T16:08:37;3.20;;;2.17;;
209;SDS011;90;48.810;9.120;2024-03-23T16:11:03;2.40;;;2.20;;
209;SDS011;90;48.810;9.120;2024-03-23T16:13:31;3.87;;;2.07;;
209;SDS011;90;48.810;9.120;2024-03-23T16:15:57;2.40;;;2.20;;
209;SDS011;90;48.810;9.120;2024-03-23T16:18:24;4.73;;;2.00;;
209;SDS011;90;48.810;9.120;2024-03-23T16:20:54;2.33;;;2.00;;
209;SDS011;90;48.810;9.120;2024-03-23T16:23:21;3.83;;;1.90;;
209;SDS011;90;48.810;9.120;2024-03-23T16:25:49;2.50;;;2.30;;
209;SDS011;90;48.810;9.120;2024-03-23T16:28:21;3.00;;;2.03;;
209;SDS011;90;48.810;9.120;2024-03-23T16:30:53;2.53;;;2.00;;
209;SDS011;90;48.810;9.120;2024-03-23T16:33:20;2.63;;;2.37;;
209;SDS011;90;48.810;9.120;2024-03-23T16:35:54;4.17;;;1.93;;
209;SDS011;90;48.810;9.120;2024-03-23T16:38:24;4.60;;;2.33;;
209;SDS011;90;48.810;9.120;2024-03-23T16:40:55;2.27;;;2.00;;
209;SDS011;90;48.810;9.120;2024-03-23T16:43:22;2.47;;;1.70;;
209;SDS011;90;48.810;9.120;2024-03-23T16:45:55;2.00;;;1.47;;
209;SDS011;90;48.810;9.120;2024-03-23T16:48:23;1.80;;;1.50;;
209;SDS011;90;48.810;9.120;2024-03-23T16:50:50;2.50;;;1.63;;
209;SDS011;90;48.810;9.120;2024-03-23T16:53:17;3.53;;;1.70;;
209;SDS011;90;48.810;9.120;2024-03-23T16:55:43;1.90;;;1.70;;
209;SDS011;90;48.810;9.120;2024-03-23T16:58:11;3.30;;;1.97;;
209;SDS011;90;48.810;9.120;2024-03-23T17:00:37;3.23;;;1.80;;
209;SDS011;90;48.810;9.120;2024-03-23T17:03:04;1.93;;;1.63;;
209;SDS011;90;48.810;9.120;2024-03-23T17:05:35;3.07;;;2.10;;
209;SDS011;90;48.810;9.120;2024-03-23T17:08:02;2.20;;;2.10;;
209;SDS011;90;48.810;9.120;2024-03-23T17:10:29;4.90;;;2.80;;
209;SDS011;90;48.810;9.120;2024-03-23T17:12:55;3.53;;;2.97;;
209;SDS011;90;48.810;9.120;2024-03-23T17:15:22;4.13;;;3.60;;
209;SDS011;90;48.810;9.120;2024-03-23T17:17:49;5.73;;;5.00;;
209;SDS011;90;48.810;9.120;2024-03-23T17:20:15;6.73;;;3.70;;
209;SDS011;90;48.810;9.120;2024-03-23T17:22:42;4.20;;;3.80;;
209;SDS011;90;48.810;9.120;2024-03-23T17:25:08;5.20;;;3.77;;
209;SDS011;90;48.810;9.120;2024-03-23T17:27:35;5.90;;;5.13;;
209;SDS011;90;48.810;9.120;2024-03-23T17:30:01;5.80;;;4.23;;
209;SDS011;90;48.810;9.120;2024-03-23T17:32:29;3.30;;;3.10;;
209;SDS011;90;48.810;9.120;2024-03-23T17:34:56;2.60;;;2.40;;
209;SDS011;90;48.810;9.120;2024-03-23T17:37:23;3.85;;;2.65;;
209;SDS011;90;48.810;9.120;2024-03-23T17:39:48;4.33;;;2.77;;
209;SDS011;90;48.810;9.120;2024-03-23T17:42:15;3.60;;;2.88;;
209;SDS011;90;48.810;9.120;2024-03-23T17:44:41;4.47;;;2.73;;
209;SDS011;90;48.810;9.120;2024-03-23T17:47:07;2.70;;;2.13;;
209;SDS011;90;48.810;9.120;2024-03-23T17:49:34;2.90;;;2.30;;
209;SDS011;90;48.810;9.120;2024-03-23T17:52:07;4.63;;;2.40;;
209;SDS011;90;48.810;9.120;2024-03-23T17:54:38;2.47;;;1.98;;
209;SDS011;90;48.810;9.120;2024-03-23T17:57:05;3.65;;;2.00;;
209;SDS011;90;48.810;9.120;2024-03-23T17:59:31;2.13;;;1.93;;
209;SDS011;90;48.810;9.120;2024-03-23T18:01:57;2.05;;;1.90;;
209;SDS011;90;48.810;9.120;2024-03-23T18:04:24;3.83;;;2.10;;
209;SDS011;90;48.810;9.120;2024-03-23T18:06:52;3.65;;;2.70;;
209;SDS011;90;48.810;9.120;2024-03-23T18:09:18;2.30;;;1.92;;
209;SDS011;90;48.810;9.120;2024-03-23T18:11:46;2.33;;;2.13;;
209;SDS011;90;48.810;9.120;2024-03-23T18:14:11;4.27;;;3.13;;
209;SDS011;90;48.810;9.120;2024-03-23T18:16:38;5.10;;;2.30;;
209;SDS011;90;48.810;9.120;2024-03-23T18:19:04;2.37;;;2.17;;
209;SDS011;90;48.810;9.120;2024-03-23T18:21:31;4.10;;;2.38;;
209;SDS011;90;48.810;9.120;2024-03-23T18:23:58;2.90;;;2.23;;
209;SDS011;90;48.810;9.120;2024-03-23T18:26:24;6.60;;;2.55;;
209;SDS011;90;48.810;9.120;2024-03-23T18:28:50;16.30;;;9.33;;
209;SDS011;90;48.810;9.120;2024-03-23T18:31:17;40.03;;;24.35;;
209;SDS011;90;48.810;9.120;2024-03-23T18:33:44;11.27;;;5.30;;
209;SDS011;90;48.810;9.120;2024-03-23T18:36:12;9.40;;;4.80;;
209;SDS011;90;48.810;9.120;2024-03-23T18:38:38;2.40;;;2.23;;
209;SDS011;90;48.810;9.120;2024-03-23T18:41:06;2.43;;;2.23;;
209;SDS011;90;48.810;9.120;2024-03-23T18:43:32;2.70;;;2.50;;
209;SDS011;90;48.810;9.120;2024-03-23T18:46:00;3.10;;;2.67;;
209;SDS011;90;48.810;9.120;2024-03-23T18:48:26;5.03;;;2.73;;
209;SDS011;90;48.810;9.120;2024-03-23T18:50:53;3.57;;;2.93;;
209;SDS011;90;48.810;9.120;2024-03-23T18:53:18;4.27;;;3.30;;
209;SDS011;90;48.810;9.120;2024-03-23T18:55:52;3.80;;;2.80;;
209;SDS011;90;48.810;9.120;2024-03-23T18:58:20;2.57;;;2.43;;
209;SDS011;90;48.810;9.120;2024-03-23T19:00:47;5.20;;;4.37;;
209;SDS011;90;48.810;9.120;2024-03-23T19:03:13;5.07;;;3.90;;
209;SDS011;90;48.810;9.120;2024-03-23T19:05:40;4.47;;;2.87;;
209;SDS011;90;48.810;9.120;2024-03-23T19:08:06;2.97;;;2.80;;
209;SDS011;90;48.810;9.120;2024-03-23T19:10:33;4.05;;;2.80;;
209;SDS011;90;48.810;9.120;2024-03-23T19:12:58;3.67;;;3.10;;
209;SDS011;90;48.810;9.120;2024-03-23T19:15:26;3.03;;;2.70;;
209;SDS011;90;48.810;9.120;2024-03-23T19:17:52;2.83;;;2.55;;
209;SDS011;90;48.810;9.120;2024-03-23T19:20:19;2.85;;;2.20;;
209;SDS011;90;48.810;9.120;2024-03-23T19:22:45;2.43;;;2.00;;
209;SDS011;90;48.810;9.120;2024-03-23T19:25:12;2.40;;;2.20;;
209;SDS011;90;48.810;9.120;2024-03-23T19:27:38;2.90;;;2.33;;
209;SDS011;90;48.810;9.120;2024-03-23T19:30:06;2.47;;;2.28;;
209;SDS011;90;48.810;9.120;2024-03-23T19:32:34;2.55;;;2.38;;
209;SDS011;90;48.810;9.120;2024-03-23T19:35:01;2.40;;;2.20;;
209;SDS011;90;48.810;9.120;2024-03-23T19:37:27;2.53;;;2.33;;